sensor_id;sensor_type;location;lat;lon;timestamp;temperature;humidity
9497;DHT22;4786;51.270;4.456;2023-04-03T00:01:39;3.50;99.90
9497;DHT22;4786;51.270;4.456;2023-04-03T00:04:05;3.60;99.90
9497;DHT22;4786;51.270;4.456;2023-04-03T00:06:32;3.50;99.90
9497;DHT22;4786;51.270;4.456;2023-04-03T00:08:58;3.40;99.90
9497;DHT22;4786;51.270;4.456;2023-04-03T00:11:24;3.40;99.90
9497;DHT22;4786;51.270;4.456;2023-04-03T00:13:50;3.40;99.90
9497;DHT22;4786;51.270;4.456;2023-04-03T00:16:17;3.30;99.90
9497;DHT22;4786;51.270;4.456;2023-04-03T00:18:43;3.30;99.90
9497;DHT22;4786;51.270;4.456;2023-04-03T00:21:12;3.30;99.90
9497;DHT22;4786;51.270;4.456;2023-04-03T00:23:38;3.40;99.90
9497;DHT22;4786;51.270;4.456;2023-04-03T00:26:05;3.30;99.90
9497;DHT22;4786;51.270;4.456;2023-04-03T00:28:31;3.30;99.90
9497;DHT22;4786;51.270;4.456;2023-04-03T00:30:57;3.20;99.90
9497;DHT22;4786;51.270;4.456;2023-04-03T00:33:23;3.50;99.90
9497;DHT22;4786;51.270;4.456;2023-04-03T00:35:50;3.20;99.90
9497;DHT22;4786;51.270;4.456;2023-04-03T00:38:16;3.20;99.90
9497;DHT22;4786;51.270;4.456;2023-04-03T00:40:46;3.30;99.90
9497;DHT22;4786;51.270;4.456;2023-04-03T00:43:16;3.20;99.90
9497;DHT22;4786;51.270;4.456;2023-04-03T00:45:45;3.20;99.90
9497;DHT22;4786;51.270;4.456;2023-04-03T00:48:15;3.10;99.90
9497;DHT22;4786;51.270;4.456;2023-04-03T00:50:44;3.10;99.90
9497;DHT22;4786;51.270;4.456;2023-04-03T00:53:21;3.10;99.90
9497;DHT22;4786;51.270;4.456;2023-04-03T00:55:49;3.10;99.90
9497;DHT22;4786;51.270;4.456;2023-04-03T00:58:20;3.20;99.90
9497;DHT22;4786;51.270;4.456;2023-04-03T01:00:52;3.10;99.90
9497;DHT22;4786;51.270;4.456;2023-04-03T01:03:21;3.10;99.90
9497;DHT22;4786;51.270;4.456;2023-04-03T01:05:47;3.00;99.90
9497;DHT22;4786;51.270;4.456;2023-04-03T01:08:14;3.00;99.90
9497;DHT22;4786;51.270;4.456;2023-04-03T01:10:40;3.00;99.90
9497;DHT22;4786;51.270;4.456;2023-04-03T01:13:28;3.00;99.90
9497;DHT22;4786;51.270;4.456;2023-04-03T01:15:55;3.00;99.90
9497;DHT22;4786;51.270;4.456;2023-04-03T01:18:24;3.00;99.90
9497;DHT22;4786;51.270;4.456;2023-04-03T01:27:10;3.00;99.90
9497;DHT22;4786;51.270;4.456;2023-04-03T01:29:36;3.00;99.90
9497;DHT22;4786;51.270;4.456;2023-04-03T01:32:03;3.00;99.90
9497;DHT22;4786;51.270;4.456;2023-04-03T01:34:30;3.00;99.90
9497;DHT22;4786;51.270;4.456;2023-04-03T01:36:57;3.00;99.90
9497;DHT22;4786;51.270;4.456;2023-04-03T01:39:23;3.00;99.90
9497;DHT22;4786;51.270;4.456;2023-04-03T01:41:50;2.90;99.90
9497;DHT22;4786;51.270;4.456;2023-04-03T01:44:16;2.90;99.90
9497;DHT22;4786;51.270;4.456;2023-04-03T01:46:43;2.90;99.90
9497;DHT22;4786;51.270;4.456;2023-04-03T01:49:09;2.90;99.90
9497;DHT22;4786;51.270;4.456;2023-04-03T01:51:35;2.90;99.90
9497;DHT22;4786;51.270;4.456;2023-04-03T01:54:01;2.90;99.90
9497;DHT22;4786;51.270;4.456;2023-04-03T01:56:28;2.90;99.90
9497;DHT22;4786;51.270;4.456;2023-04-03T01:58:53;2.90;99.90
9497;DHT22;4786;51.270;4.456;2023-04-03T02:01:19;2.90;99.90
9497;DHT22;4786;51.270;4.456;2023-04-03T02:03:45;3.20;99.90
9497;DHT22;4786;51.270;4.456;2023-04-03T02:06:11;2.80;99.90
9497;DHT22;4786;51.270;4.456;2023-04-03T02:08:38;2.80;99.90
9497;DHT22;4786;51.270;4.456;2023-04-03T02:11:03;2.80;99.90
9497;DHT22;4786;51.270;4.456;2023-04-03T02:13:29;2.80;99.90
9497;DHT22;4786;51.270;4.456;2023-04-03T02:15:55;2.80;99.90
9497;DHT22;4786;51.270;4.456;2023-04-03T02:18:21;2.80;99.90
9497;DHT22;4786;51.270;4.456;2023-04-03T02:20:46;2.80;99.90
9497;DHT22;4786;51.270;4.456;2023-04-03T02:23:13;2.70;99.90
9497;DHT22;4786;51.270;4.456;2023-04-03T02:25:38;2.80;99.90
9497;DHT22;4786;51.270;4.456;2023-04-03T02:28:04;2.70;99.90
9497;DHT22;4786;51.270;4.456;2023-04-03T02:30:30;2.70;99.90
9497;DHT22;4786;51.270;4.456;2023-04-03T02:32:57;2.70;99.90
9497;DHT22;4786;51.270;4.456;2023-04-03T02:35:23;2.80;99.90
9497;DHT22;4786;51.270;4.456;2023-04-03T02:37:49;2.90;99.90
9497;DHT22;4786;51.270;4.456;2023-04-03T02:40:15;2.80;99.90
9497;DHT22;4786;51.270;4.456;2023-04-03T02:42:41;2.70;99.90
9497;DHT22;4786;51.270;4.456;2023-04-03T02:45:07;2.70;99.90
9497;DHT22;4786;51.270;4.456;2023-04-03T02:47:33;2.60;99.90
9497;DHT22;4786;51.270;4.456;2023-04-03T02:49:58;2.60;99.90
9497;DHT22;4786;51.270;4.456;2023-04-03T02:52:24;2.70;99.90
9497;DHT22;4786;51.270;4.456;2023-04-03T02:54:50;2.70;99.90
9497;DHT22;4786;51.270;4.456;2023-04-03T02:57:16;2.70;99.90
9497;DHT22;4786;51.270;4.456;2023-04-03T02:59:42;2.70;99.90
9497;DHT22;4786;51.270;4.456;2023-04-03T03:02:09;2.80;99.90
9497;DHT22;4786;51.270;4.456;2023-04-03T03:04:35;2.80;99.90
9497;DHT22;4786;51.270;4.456;2023-04-03T03:07:01;2.70;99.90
9497;DHT22;4786;51.270;4.456;2023-04-03T03:09:28;2.70;99.90
9497;DHT22;4786;51.270;4.456;2023-04-03T03:11:56;2.60;99.90
9497;DHT22;4786;51.270;4.456;2023-04-03T03:14:22;2.60;99.90
9497;DHT22;4786;51.270;4.456;2023-04-03T03:16:49;2.60;99.90
9497;DHT22;4786;51.270;4.456;2023-04-03T03:19:15;2.60;99.90
9497;DHT22;4786;51.270;4.456;2023-04-03T03:21:41;2.50;99.90
9497;DHT22;4786;51.270;4.456;2023-04-03T03:24:07;2.50;99.90
9497;DHT22;4786;51.270;4.456;2023-04-03T03:26:33;2.50;99.90
9497;DHT22;4786;51.270;4.456;2023-04-03T03:28:58;2.60;99.90
9497;DHT22;4786;51.270;4.456;2023-04-03T03:31:24;2.60;99.90
9497;DHT22;4786;51.270;4.456;2023-04-03T03:33:50;2.70;99.90
9497;DHT22;4786;51.270;4.456;2023-04-03T03:36:16;2.60;99.90
9497;DHT22;4786;51.270;4.456;2023-04-03T03:38:42;2.50;99.90
9497;DHT22;4786;51.270;4.456;2023-04-03T03:41:08;2.50;99.90
9497;DHT22;4786;51.270;4.456;2023-04-03T03:43:34;2.50;99.90
9497;DHT22;4786;51.270;4.456;2023-04-03T03:46:00;2.50;99.90
9497;DHT22;4786;51.270;4.456;2023-04-03T03:48:26;2.60;99.90
9497;DHT22;4786;51.270;4.456;2023-04-03T03:50:52;2.60;99.90
9497;DHT22;4786;51.270;4.456;2023-04-03T03:53:18;2.60;99.90
9497;DHT22;4786;51.270;4.456;2023-04-03T03:55:44;2.50;99.90
9497;DHT22;4786;51.270;4.456;2023-04-03T03:58:10;2.50;99.90
9497;DHT22;4786;51.270;4.456;2023-04-03T04:00:36;2.40;99.90
9497;DHT22;4786;51.270;4.456;2023-04-03T04:03:02;2.50;99.90
9497;DHT22;4786;51.270;4.456;2023-04-03T04:05:29;2.50;99.90
9497;DHT22;4786;51.270;4.456;2023-04-03T04:07:55;2.40;99.90
9497;DHT22;4786;51.270;4.456;2023-04-03T04:10:21;2.50;99.90
9497;DHT22;4786;51.270;4.456;2023-04-03T04:12:47;2.50;99.90
9497;DHT22;4786;51.270;4.456;2023-04-03T04:15:14;2.50;99.90
9497;DHT22;4786;51.270;4.456;2023-04-03T04:17:40;2.80;99.90
9497;DHT22;4786;51.270;4.456;2023-04-03T04:20:06;2.70;99.90
9497;DHT22;4786;51.270;4.456;2023-04-03T04:22:32;2.60;99.90
9497;DHT22;4786;51.270;4.456;2023-04-03T04:24:58;2.60;99.90
9497;DHT22;4786;51.270;4.456;2023-04-03T04:27:24;2.60;99.90
9497;DHT22;4786;51.270;4.456;2023-04-03T04:29:50;2.60;99.90
9497;DHT22;4786;51.270;4.456;2023-04-03T04:32:16;2.60;99.90
9497;DHT22;4786;51.270;4.456;2023-04-03T04:34:42;2.60;99.90
9497;DHT22;4786;51.270;4.456;2023-04-03T04:37:08;2.60;99.90
9497;DHT22;4786;51.270;4.456;2023-04-03T04:39:33;2.50;99.90
9497;DHT22;4786;51.270;4.456;2023-04-03T04:42:00;2.50;99.90
9497;DHT22;4786;51.270;4.456;2023-04-03T04:44:25;2.40;99.90
9497;DHT22;4786;51.270;4.456;2023-04-03T04:46:51;2.50;99.90
9497;DHT22;4786;51.270;4.456;2023-04-03T04:49:17;2.50;99.90
9497;DHT22;4786;51.270;4.456;2023-04-03T04:51:43;2.40;99.90
9497;DHT22;4786;51.270;4.456;2023-04-03T04:54:09;2.40;99.90
9497;DHT22;4786;51.270;4.456;2023-04-03T04:56:35;2.40;99.90
9497;DHT22;4786;51.270;4.456;2023-04-03T04:59:01;2.30;99.90
9497;DHT22;4786;51.270;4.456;2023-04-03T05:01:27;2.30;99.90
9497;DHT22;4786;51.270;4.456;2023-04-03T05:03:52;2.30;99.90
9497;DHT22;4786;51.270;4.456;2023-04-03T05:06:19;2.30;99.90
9497;DHT22;4786;51.270;4.456;2023-04-03T05:08:45;2.30;99.90
9497;DHT22;4786;51.270;4.456;2023-04-03T05:11:11;2.30;99.90
9497;DHT22;4786;51.270;4.456;2023-04-03T05:13:36;2.60;99.90
9497;DHT22;4786;51.270;4.456;2023-04-03T05:16:03;2.30;99.90
9497;DHT22;4786;51.270;4.456;2023-04-03T05:18:29;2.20;99.90
9497;DHT22;4786;51.270;4.456;2023-04-03T05:20:55;2.20;99.90
9497;DHT22;4786;51.270;4.456;2023-04-03T05:23:21;2.30;99.90
9497;DHT22;4786;51.270;4.456;2023-04-03T05:25:47;2.20;99.90
9497;DHT22;4786;51.270;4.456;2023-04-03T05:28:14;2.20;99.90
9497;DHT22;4786;51.270;4.456;2023-04-03T05:30:40;2.20;99.90
9497;DHT22;4786;51.270;4.456;2023-04-03T05:33:07;2.20;99.90
9497;DHT22;4786;51.270;4.456;2023-04-03T05:35:36;2.30;99.90
9497;DHT22;4786;51.270;4.456;2023-04-03T05:38:04;2.20;99.90
9497;DHT22;4786;51.270;4.456;2023-04-03T05:40:30;2.60;99.90
9497;DHT22;4786;51.270;4.456;2023-04-03T05:42:56;2.30;99.90
9497;DHT22;4786;51.270;4.456;2023-04-03T05:45:22;2.60;99.90
9497;DHT22;4786;51.270;4.456;2023-04-03T05:47:47;2.70;99.90
9497;DHT22;4786;51.270;4.456;2023-04-03T05:50:13;3.10;99.90
9497;DHT22;4786;51.270;4.456;2023-04-03T05:52:43;3.50;99.90
9497;DHT22;4786;51.270;4.456;2023-04-03T05:55:09;3.60;99.90
9497;DHT22;4786;51.270;4.456;2023-04-03T05:57:35;3.70;99.90
9497;DHT22;4786;51.270;4.456;2023-04-03T06:00:01;3.70;99.90
9497;DHT22;4786;51.270;4.456;2023-04-03T06:02:27;3.20;99.90
9497;DHT22;4786;51.270;4.456;2023-04-03T06:04:53;3.60;99.90
9497;DHT22;4786;51.270;4.456;2023-04-03T06:07:23;3.70;99.90
9497;DHT22;4786;51.270;4.456;2023-04-03T06:09:50;3.80;99.90
9497;DHT22;4786;51.270;4.456;2023-04-03T06:12:17;4.10;99.90
9497;DHT22;4786;51.270;4.456;2023-04-03T06:14:43;4.10;99.90
9497;DHT22;4786;51.270;4.456;2023-04-03T06:17:09;4.00;99.90
9497;DHT22;4786;51.270;4.456;2023-04-03T06:19:36;4.20;99.90
9497;DHT22;4786;51.270;4.456;2023-04-03T06:22:02;4.00;99.90
9497;DHT22;4786;51.270;4.456;2023-04-03T06:24:29;3.90;99.90
9497;DHT22;4786;51.270;4.456;2023-04-03T06:26:55;4.00;99.90
9497;DHT22;4786;51.270;4.456;2023-04-03T06:29:22;4.00;99.90
9497;DHT22;4786;51.270;4.456;2023-04-03T06:31:49;4.20;99.90
9497;DHT22;4786;51.270;4.456;2023-04-03T06:34:15;4.30;99.90
9497;DHT22;4786;51.270;4.456;2023-04-03T06:36:42;4.40;99.90
9497;DHT22;4786;51.270;4.456;2023-04-03T06:39:19;4.50;99.90
9497;DHT22;4786;51.270;4.456;2023-04-03T06:41:50;4.70;99.90
9497;DHT22;4786;51.270;4.456;2023-04-03T06:44:17;4.60;99.90
9497;DHT22;4786;51.270;4.456;2023-04-03T06:46:44;4.60;99.90
9497;DHT22;4786;51.270;4.456;2023-04-03T06:49:10;4.70;99.90
9497;DHT22;4786;51.270;4.456;2023-04-03T06:51:36;5.00;99.90
9497;DHT22;4786;51.270;4.456;2023-04-03T06:54:04;4.60;99.90
9497;DHT22;4786;51.270;4.456;2023-04-03T06:56:31;4.80;99.90
9497;DHT22;4786;51.270;4.456;2023-04-03T06:58:57;4.90;99.90
9497;DHT22;4786;51.270;4.456;2023-04-03T07:01:26;5.20;99.90
9497;DHT22;4786;51.270;4.456;2023-04-03T07:03:53;5.20;99.90
9497;DHT22;4786;51.270;4.456;2023-04-03T07:06:20;4.90;99.90
9497;DHT22;4786;51.270;4.456;2023-04-03T07:08:47;5.00;99.90
9497;DHT22;4786;51.270;4.456;2023-04-03T07:11:17;5.00;99.90
9497;DHT22;4786;51.270;4.456;2023-04-03T07:13:42;4.90;99.90
9497;DHT22;4786;51.270;4.456;2023-04-03T07:16:09;4.90;99.90
9497;DHT22;4786;51.270;4.456;2023-04-03T07:18:35;4.90;99.90
9497;DHT22;4786;51.270;4.456;2023-04-03T07:21:03;4.90;99.90
9497;DHT22;4786;51.270;4.456;2023-04-03T07:23:29;4.80;99.90
9497;DHT22;4786;51.270;4.456;2023-04-03T07:25:55;4.80;99.90
9497;DHT22;4786;51.270;4.456;2023-04-03T07:28:23;4.90;99.90
9497;DHT22;4786;51.270;4.456;2023-04-03T07:30:52;5.10;99.90
9497;DHT22;4786;51.270;4.456;2023-04-03T07:33:20;5.30;99.90
9497;DHT22;4786;51.270;4.456;2023-04-03T07:35:46;5.60;99.90
9497;DHT22;4786;51.270;4.456;2023-04-03T07:38:12;5.80;99.90
9497;DHT22;4786;51.270;4.456;2023-04-03T07:40:38;5.90;99.90
9497;DHT22;4786;51.270;4.456;2023-04-03T07:43:05;5.80;99.90
9497;DHT22;4786;51.270;4.456;2023-04-03T07:45:34;6.00;99.90
9497;DHT22;4786;51.270;4.456;2023-04-03T07:48:01;5.90;99.90
9497;DHT22;4786;51.270;4.456;2023-04-03T07:50:27;5.90;99.90
9497;DHT22;4786;51.270;4.456;2023-04-03T07:52:53;6.20;99.90
9497;DHT22;4786;51.270;4.456;2023-04-03T07:55:21;6.60;99.90
9497;DHT22;4786;51.270;4.456;2023-04-03T07:57:47;7.00;99.90
9497;DHT22;4786;51.270;4.456;2023-04-03T08:00:13;7.20;99.90
9497;DHT22;4786;51.270;4.456;2023-04-03T08:02:39;7.50;99.90
9497;DHT22;4786;51.270;4.456;2023-04-03T08:05:05;7.70;99.90
9497;DHT22;4786;51.270;4.456;2023-04-03T08:07:31;7.80;99.90
9497;DHT22;4786;51.270;4.456;2023-04-03T08:09:57;7.90;99.90
9497;DHT22;4786;51.270;4.456;2023-04-03T08:12:23;8.00;99.90
9497;DHT22;4786;51.270;4.456;2023-04-03T08:14:49;7.90;99.90
9497;DHT22;4786;51.270;4.456;2023-04-03T08:17:15;8.00;99.90
9497;DHT22;4786;51.270;4.456;2023-04-03T08:19:41;8.00;99.90
9497;DHT22;4786;51.270;4.456;2023-04-03T08:22:07;8.00;99.90
9497;DHT22;4786;51.270;4.456;2023-04-03T08:24:33;7.60;99.90
9497;DHT22;4786;51.270;4.456;2023-04-03T08:26:59;7.50;99.90
9497;DHT22;4786;51.270;4.456;2023-04-03T08:29:25;7.70;99.90
9497;DHT22;4786;51.270;4.456;2023-04-03T08:31:51;7.70;99.90
9497;DHT22;4786;51.270;4.456;2023-04-03T08:34:18;7.80;99.90
9497;DHT22;4786;51.270;4.456;2023-04-03T08:36:45;7.70;99.90
